Etusivu
METAR-TAF:

METAR-TAF

Lentoasemat :

Golden Triangle Regional Airport

Columbus / West Point / Starkville, Mississippi, Yhdysvallat

Leveyspiiri: 33-27N, Pituuspiiri: 088-35W, korkeus merenpinnasta: 80 m

Tämänhetkinen sää

Tämä raportti tehtiin 23 minuuttia sitten, kello 05.56 UTC
Tuuli 3 kn lännestä
Lämpötila 23°C
Kosteus 94%
Ilmanpaine 1016 hPa
Näkyvyys: 16.1 km
selkeää

METAR: KGTR 170556Z AUTO 27003KT 10SM CLR 23/22 A3001 RMK AO2 SLP166 T02330217 10317 20228 403670211 58001

Aika: 01:19 (06:19 UTC)

Sääennuste

Tämä raportti tehtiin 59 minuuttia sitten, kello 05.20 UTC
Ennuste voimassa 17. päivästä klo 06 UTC - 18. päivään klo 06 UTC
Tuuli 3 kn koillisesta
Näkyvyys: 10 km
selkeää

TAF: KGTR 170520Z 1706/1806 04003KT P6SM SKC

Säähavainnot ja -ennusteet yli 4000 lentoasemalta (METAR- ja TAF-raportit).

Käytössä olevat sääasemat on merkitty karttaan keltaisilla ja punaisilla pisteillä.

Aseta hiiri pisteen päälle nähdäksesi sääaseman nimen.

Klikkaa sitten nähdäksesi säähavainnot ja -ennusteet.

Kartan vaihtaminen: klikkaa mustalla rastilla varustettuja vihreitä pisteitä, niin voit zoomata sisään; viivalla varustettua vihreää pistettä, niin voit zoomata ulos tai vihreitä nuolia, niin pääset viereisille kartoille.


METAR-TAF: